sensor_id;sensor_type;location;lat;lon;timestamp;P1;durP1;ratioP1;P2;durP2;ratioP2
11614;SDS011;5863;52.832;4.758;2023-07-20T00:02:19;2.10;;;1.90;;
11614;SDS011;5863;52.832;4.758;2023-07-20T00:04:46;4.15;;;2.08;;
11614;SDS011;5863;52.832;4.758;2023-07-20T00:07:12;2.13;;;1.85;;
11614;SDS011;5863;52.832;4.758;2023-07-20T00:09:39;1.98;;;1.77;;
11614;SDS011;5863;52.832;4.758;2023-07-20T00:12:06;2.35;;;1.75;;
11614;SDS011;5863;52.832;4.758;2023-07-20T00:14:35;2.00;;;1.73;;
11614;SDS011;5863;52.832;4.758;2023-07-20T00:17:02;2.42;;;1.55;;
11614;SDS011;5863;52.832;4.758;2023-07-20T00:19:29;2.60;;;1.80;;
11614;SDS011;5863;52.832;4.758;2023-07-20T00:21:57;2.58;;;1.70;;
11614;SDS011;5863;52.832;4.758;2023-07-20T00:24:24;1.45;;;1.35;;
11614;SDS011;5863;52.832;4.758;2023-07-20T00:26:51;2.53;;;1.75;;
11614;SDS011;5863;52.832;4.758;2023-07-20T00:29:17;2.00;;;1.60;;
11614;SDS011;5863;52.832;4.758;2023-07-20T00:31:45;1.50;;;1.40;;
11614;SDS011;5863;52.832;4.758;2023-07-20T00:34:12;1.40;;;1.30;;
11614;SDS011;5863;52.832;4.758;2023-07-20T00:36:39;1.42;;;1.30;;
11614;SDS011;5863;52.832;4.758;2023-07-20T00:39:06;3.10;;;1.40;;
11614;SDS011;5863;52.832;4.758;2023-07-20T00:41:33;1.70;;;1.10;;
11614;SDS011;5863;52.832;4.758;2023-07-20T00:43:59;1.92;;;1.35;;
11614;SDS011;5863;52.832;4.758;2023-07-20T00:46:26;1.38;;;1.10;;
11614;SDS011;5863;52.832;4.758;2023-07-20T00:48:54;1.73;;;1.10;;
11614;SDS011;5863;52.832;4.758;2023-07-20T00:51:22;1.92;;;1.25;;
11614;SDS011;5863;52.832;4.758;2023-07-20T00:53:51;1.23;;;1.13;;
11614;SDS011;5863;52.832;4.758;2023-07-20T00:56:18;2.75;;;1.13;;
11614;SDS011;5863;52.832;4.758;2023-07-20T00:58:45;1.30;;;1.00;;
11614;SDS011;5863;52.832;4.758;2023-07-20T01:01:12;1.77;;;1.10;;
11614;SDS011;5863;52.832;4.758;2023-07-20T01:03:39;1.55;;;1.40;;
11614;SDS011;5863;52.832;4.758;2023-07-20T01:06:09;4.03;;;1.40;;
11614;SDS011;5863;52.832;4.758;2023-07-20T01:08:43;2.13;;;1.33;;
11614;SDS011;5863;52.832;4.758;2023-07-20T01:11:21;0.95;;;0.95;;
11614;SDS011;5863;52.832;4.758;2023-07-20T01:13:52;1.42;;;1.20;;
11614;SDS011;5863;52.832;4.758;2023-07-20T01:16:19;1.88;;;1.20;;
11614;SDS011;5863;52.832;4.758;2023-07-20T01:18:46;1.95;;;1.27;;
11614;SDS011;5863;52.832;4.758;2023-07-20T01:21:18;2.90;;;1.20;;
11614;SDS011;5863;52.832;4.758;2023-07-20T01:23:57;1.95;;;1.08;;
11614;SDS011;5863;52.832;4.758;2023-07-20T01:26:51;2.22;;;1.25;;
11614;SDS011;5863;52.832;4.758;2023-07-20T01:29:33;2.30;;;1.23;;
11614;SDS011;5863;52.832;4.758;2023-07-20T01:32:11;2.28;;;1.08;;
11614;SDS011;5863;52.832;4.758;2023-07-20T01:34:37;3.33;;;1.20;;
11614;SDS011;5863;52.832;4.758;2023-07-20T01:37:07;1.50;;;1.30;;
11614;SDS011;5863;52.832;4.758;2023-07-20T01:39:35;1.92;;;1.40;;
11614;SDS011;5863;52.832;4.758;2023-07-20T01:42:03;1.48;;;1.15;;
11614;SDS011;5863;52.832;4.758;2023-07-20T01:44:31;1.38;;;1.27;;
11614;SDS011;5863;52.832;4.758;2023-07-20T01:46:58;4.57;;;1.33;;
11614;SDS011;5863;52.832;4.758;2023-07-20T01:49:25;2.38;;;1.02;;
11614;SDS011;5863;52.832;4.758;2023-07-20T01:51:52;1.42;;;1.20;;
11614;SDS011;5863;52.832;4.758;2023-07-20T01:54:19;1.70;;;1.20;;
11614;SDS011;5863;52.832;4.758;2023-07-20T01:56:46;1.00;;;1.00;;
11614;SDS011;5863;52.832;4.758;2023-07-20T01:59:13;1.30;;;1.20;;
11614;SDS011;5863;52.832;4.758;2023-07-20T02:01:40;2.25;;;1.23;;
11614;SDS011;5863;52.832;4.758;2023-07-20T02:04:06;1.40;;;1.30;;
11614;SDS011;5863;52.832;4.758;2023-07-20T02:06:34;2.78;;;1.38;;
11614;SDS011;5863;52.832;4.758;2023-07-20T02:09:01;2.97;;;1.30;;
11614;SDS011;5863;52.832;4.758;2023-07-20T02:11:28;2.05;;;1.20;;
11614;SDS011;5863;52.832;4.758;2023-07-20T02:13:55;1.58;;;1.23;;
11614;SDS011;5863;52.832;4.758;2023-07-20T02:16:22;1.20;;;1.20;;
11614;SDS011;5863;52.832;4.758;2023-07-20T02:18:48;2.10;;;1.25;;
11614;SDS011;5863;52.832;4.758;2023-07-20T02:21:16;2.03;;;1.40;;
11614;SDS011;5863;52.832;4.758;2023-07-20T02:23:45;3.40;;;1.30;;
11614;SDS011;5863;52.832;4.758;2023-07-20T02:26:11;1.45;;;1.13;;
11614;SDS011;5863;52.832;4.758;2023-07-20T02:28:38;3.00;;;1.40;;
11614;SDS011;5863;52.832;4.758;2023-07-20T02:31:06;1.50;;;1.40;;
11614;SDS011;5863;52.832;4.758;2023-07-20T02:33:33;2.10;;;1.40;;
11614;SDS011;5863;52.832;4.758;2023-07-20T02:36:02;1.77;;;1.40;;
11614;SDS011;5863;52.832;4.758;2023-07-20T02:38:29;2.55;;;1.30;;
11614;SDS011;5863;52.832;4.758;2023-07-20T02:40:57;2.05;;;1.30;;
11614;SDS011;5863;52.832;4.758;2023-07-20T02:43:24;1.95;;;1.58;;
11614;SDS011;5863;52.832;4.758;2023-07-20T02:45:50;2.25;;;1.30;;
11614;SDS011;5863;52.832;4.758;2023-07-20T02:48:17;2.90;;;1.45;;
11614;SDS011;5863;52.832;4.758;2023-07-20T02:50:44;1.40;;;1.30;;
11614;SDS011;5863;52.832;4.758;2023-07-20T02:53:10;3.53;;;1.58;;
11614;SDS011;5863;52.832;4.758;2023-07-20T02:55:37;1.33;;;1.23;;
11614;SDS011;5863;52.832;4.758;2023-07-20T02:58:05;1.30;;;1.10;;
11614;SDS011;5863;52.832;4.758;2023-07-20T03:00:32;1.42;;;1.30;;
11614;SDS011;5863;52.832;4.758;2023-07-20T03:02:59;2.28;;;1.30;;
11614;SDS011;5863;52.832;4.758;2023-07-20T03:05:26;1.77;;;1.60;;
11614;SDS011;5863;52.832;4.758;2023-07-20T03:07:53;1.20;;;1.10;;
11614;SDS011;5863;52.832;4.758;2023-07-20T03:10:19;3.03;;;1.40;;
11614;SDS011;5863;52.832;4.758;2023-07-20T03:12:46;1.30;;;1.20;;
11614;SDS011;5863;52.832;4.758;2023-07-20T03:15:14;1.30;;;1.20;;
11614;SDS011;5863;52.832;4.758;2023-07-20T03:17:41;3.45;;;1.55;;
11614;SDS011;5863;52.832;4.758;2023-07-20T03:20:08;3.45;;;1.58;;
11614;SDS011;5863;52.832;4.758;2023-07-20T03:22:37;1.77;;;1.40;;
11614;SDS011;5863;52.832;4.758;2023-07-20T03:25:05;1.65;;;1.30;;
11614;SDS011;5863;52.832;4.758;2023-07-20T03:27:32;1.50;;;1.40;;
11614;SDS011;5863;52.832;4.758;2023-07-20T03:29:58;2.33;;;1.52;;
11614;SDS011;5863;52.832;4.758;2023-07-20T03:32:26;2.58;;;1.27;;
11614;SDS011;5863;52.832;4.758;2023-07-20T03:34:53;2.65;;;1.33;;
11614;SDS011;5863;52.832;4.758;2023-07-20T03:37:20;2.47;;;1.27;;
11614;SDS011;5863;52.832;4.758;2023-07-20T03:39:47;1.58;;;1.38;;
11614;SDS011;5863;52.832;4.758;2023-07-20T03:42:14;2.42;;;1.50;;
11614;SDS011;5863;52.832;4.758;2023-07-20T03:44:40;1.83;;;1.15;;
11614;SDS011;5863;52.832;4.758;2023-07-20T03:47:07;1.50;;;1.40;;
11614;SDS011;5863;52.832;4.758;2023-07-20T03:49:35;1.77;;;1.50;;
11614;SDS011;5863;52.832;4.758;2023-07-20T03:52:03;1.52;;;1.42;;
11614;SDS011;5863;52.832;4.758;2023-07-20T03:54:30;1.60;;;1.50;;
11614;SDS011;5863;52.832;4.758;2023-07-20T03:56:56;1.70;;;1.60;;
11614;SDS011;5863;52.832;4.758;2023-07-20T03:59:24;2.17;;;1.60;;
11614;SDS011;5863;52.832;4.758;2023-07-20T04:01:51;1.65;;;1.55;;
11614;SDS011;5863;52.832;4.758;2023-07-20T04:04:18;2.72;;;1.80;;
11614;SDS011;5863;52.832;4.758;2023-07-20T04:06:46;1.70;;;1.60;;
11614;SDS011;5863;52.832;4.758;2023-07-20T04:09:13;2.17;;;1.42;;
11614;SDS011;5863;52.832;4.758;2023-07-20T04:11:40;1.92;;;1.83;;
11614;SDS011;5863;52.832;4.758;2023-07-20T04:14:06;1.63;;;1.52;;
11614;SDS011;5863;52.832;4.758;2023-07-20T04:16:33;1.70;;;1.60;;
11614;SDS011;5863;52.832;4.758;2023-07-20T04:19:00;1.75;;;1.60;;
11614;SDS011;5863;52.832;4.758;2023-07-20T04:21:28;1.95;;;1.77;;
11614;SDS011;5863;52.832;4.758;2023-07-20T04:23:56;2.25;;;2.00;;
11614;SDS011;5863;52.832;4.758;2023-07-20T04:26:23;2.47;;;1.90;;
11614;SDS011;5863;52.832;4.758;2023-07-20T04:28:50;1.70;;;1.60;;
11614;SDS011;5863;52.832;4.758;2023-07-20T04:31:18;1.60;;;1.50;;
11614;SDS011;5863;52.832;4.758;2023-07-20T04:33:45;2.55;;;1.77;;
11614;SDS011;5863;52.832;4.758;2023-07-20T04:36:12;2.03;;;1.92;;
11614;SDS011;5863;52.832;4.758;2023-07-20T04:38:42;2.85;;;1.98;;
11614;SDS011;5863;52.832;4.758;2023-07-20T04:41:12;2.38;;;2.20;;
11614;SDS011;5863;52.832;4.758;2023-07-20T04:43:40;2.28;;;2.08;;
11614;SDS011;5863;52.832;4.758;2023-07-20T04:46:07;2.22;;;2.03;;
11614;SDS011;5863;52.832;4.758;2023-07-20T04:48:34;2.90;;;2.00;;
11614;SDS011;5863;52.832;4.758;2023-07-20T04:51:01;2.08;;;1.98;;
11614;SDS011;5863;52.832;4.758;2023-07-20T04:53:28;2.40;;;2.20;;
11614;SDS011;5863;52.832;4.758;2023-07-20T04:55:56;2.15;;;1.95;;
11614;SDS011;5863;52.832;4.758;2023-07-20T04:58:24;2.95;;;2.00;;
11614;SDS011;5863;52.832;4.758;2023-07-20T05:00:51;1.85;;;1.75;;
11614;SDS011;5863;52.832;4.758;2023-07-20T05:03:18;1.50;;;1.40;;
11614;SDS011;5863;52.832;4.758;2023-07-20T05:05:46;2.95;;;1.50;;
11614;SDS011;5863;52.832;4.758;2023-07-20T05:08:13;2.20;;;1.70;;
11614;SDS011;5863;52.832;4.758;2023-07-20T05:10:39;1.95;;;1.80;;
11614;SDS011;5863;52.832;4.758;2023-07-20T05:13:06;1.60;;;1.50;;
11614;SDS011;5863;52.832;4.758;2023-07-20T05:15:34;1.50;;;1.40;;
11614;SDS011;5863;52.832;4.758;2023-07-20T05:18:01;2.78;;;1.50;;
11614;SDS011;5863;52.832;4.758;2023-07-20T05:20:29;1.52;;;1.40;;
11614;SDS011;5863;52.832;4.758;2023-07-20T05:22:56;1.73;;;1.20;;
11614;SDS011;5863;52.832;4.758;2023-07-20T05:25:23;1.85;;;1.10;;
11614;SDS011;5863;52.832;4.758;2023-07-20T05:27:51;2.33;;;1.40;;
11614;SDS011;5863;52.832;4.758;2023-07-20T05:30:20;3.35;;;1.00;;
11614;SDS011;5863;52.832;4.758;2023-07-20T05:32:50;1.35;;;1.02;;
11614;SDS011;5863;52.832;4.758;2023-07-20T05:35:19;2.05;;;1.27;;
11614;SDS011;5863;52.832;4.758;2023-07-20T05:37:46;2.08;;;1.02;;
11614;SDS011;5863;52.832;4.758;2023-07-20T05:40:13;1.67;;;1.45;;
11614;SDS011;5863;52.832;4.758;2023-07-20T05:42:43;1.50;;;1.27;;
11614;SDS011;5863;52.832;4.758;2023-07-20T05:45:10;1.50;;;1.08;;
11614;SDS011;5863;52.832;4.758;2023-07-20T05:47:37;2.53;;;1.42;;
11614;SDS011;5863;52.832;4.758;2023-07-20T05:50:05;2.13;;;0.93;;
11614;SDS011;5863;52.832;4.758;2023-07-20T05:52:33;3.30;;;1.00;;
11614;SDS011;5863;52.832;4.758;2023-07-20T05:55:00;1.58;;;0.90;;
11614;SDS011;5863;52.832;4.758;2023-07-20T05:57:28;1.05;;;0.93;;
11614;SDS011;5863;52.832;4.758;2023-07-20T05:59:54;1.33;;;1.00;;
11614;SDS011;5863;52.832;4.758;2023-07-20T06:02:21;1.45;;;0.82;;
11614;SDS011;5863;52.832;4.758;2023-07-20T06:04:49;1.58;;;1.15;;
11614;SDS011;5863;52.832;4.758;2023-07-20T06:07:17;0.80;;;0.75;;
11614;SDS011;5863;52.832;4.758;2023-07-20T06:09:44;1.10;;;1.02;;
11614;SDS011;5863;52.832;4.758;2023-07-20T06:12:10;3.75;;;0.80;;
11614;SDS011;5863;52.832;4.758;2023-07-20T06:14:37;1.52;;;1.02;;
11614;SDS011;5863;52.832;4.758;2023-07-20T06:17:08;1.20;;;0.98;;
11614;SDS011;5863;52.832;4.758;2023-07-20T06:19:34;2.15;;;1.00;;
11614;SDS011;5863;52.832;4.758;2023-07-20T06:22:02;1.05;;;0.90;;
11614;SDS011;5863;52.832;4.758;2023-07-20T06:24:30;0.88;;;0.88;;
11614;SDS011;5863;52.832;4.758;2023-07-20T06:26:57;2.33;;;0.82;;
11614;SDS011;5863;52.832;4.758;2023-07-20T06:29:24;1.10;;;0.85;;
11614;SDS011;5863;52.832;4.758;2023-07-20T06:31:50;1.38;;;0.80;;
11614;SDS011;5863;52.832;4.758;2023-07-20T06:34:17;1.05;;;0.90;;
11614;SDS011;5863;52.832;4.758;2023-07-20T06:36:45;2.47;;;1.00;;
11614;SDS011;5863;52.832;4.758;2023-07-20T06:39:12;0.95;;;0.95;;
11614;SDS011;5863;52.832;4.758;2023-07-20T06:41:40;1.20;;;1.00;;
11614;SDS011;5863;52.832;4.758;2023-07-20T06:44:07;2.10;;;1.10;;
11614;SDS011;5863;52.832;4.758;2023-07-20T06:46:34;0.90;;;0.80;;
11614;SDS011;5863;52.832;4.758;2023-07-20T06:49:00;0.93;;;0.90;;
11614;SDS011;5863;52.832;4.758;2023-07-20T06:51:29;1.58;;;1.10;;
11614;SDS011;5863;52.832;4.758;2023-07-20T06:53:55;2.35;;;0.90;;
11614;SDS011;5863;52.832;4.758;2023-07-20T06:56:22;2.67;;;1.13;;
11614;SDS011;5863;52.832;4.758;2023-07-20T06:58:50;1.15;;;1.08;;
11614;SDS011;5863;52.832;4.758;2023-07-20T07:01:17;2.67;;;1.20;;
11614;SDS011;5863;52.832;4.758;2023-07-20T07:03:46;1.20;;;1.10;;
11614;SDS011;5863;52.832;4.758;2023-07-20T07:06:12;2.65;;;1.10;;
11614;SDS011;5863;52.832;4.758;2023-07-20T07:08:39;1.17;;;1.00;;
11614;SDS011;5863;52.832;4.758;2023-07-20T07:11:06;1.10;;;1.00;;
11614;SDS011;5863;52.832;4.758;2023-07-20T07:13:32;1.52;;;1.10;;
11614;SDS011;5863;52.832;4.758;2023-07-20T07:16:07;1.00;;;0.90;;
11614;SDS011;5863;52.832;4.758;2023-07-20T07:18:34;1.73;;;1.00;;
11614;SDS011;5863;52.832;4.758;2023-07-20T07:21:01;1.13;;;0.90;;
11614;SDS011;5863;52.832;4.758;2023-07-20T07:23:31;1.48;;;0.85;;
11614;SDS011;5863;52.832;4.758;2023-07-20T07:25:58;3.38;;;1.17;;
11614;SDS011;5863;52.832;4.758;2023-07-20T07:28:24;1.85;;;0.93;;
11614;SDS011;5863;52.832;4.758;2023-07-20T07:30:51;1.10;;;0.95;;
11614;SDS011;5863;52.832;4.758;2023-07-20T07:33:19;1.48;;;1.15;;
11614;SDS011;5863;52.832;4.758;2023-07-20T07:35:46;1.08;;;0.85;;
11614;SDS011;5863;52.832;4.758;2023-07-20T07:38:14;2.90;;;0.88;;
11614;SDS011;5863;52.832;4.758;2023-07-20T07:40:40;1.50;;;1.27;;
11614;SDS011;5863;52.832;4.758;2023-07-20T07:43:07;0.70;;;0.70;;
11614;SDS011;5863;52.832;4.758;2023-07-20T07:45:35;1.10;;;0.93;;
11614;SDS011;5863;52.832;4.758;2023-07-20T07:48:02;1.83;;;1.00;;
11614;SDS011;5863;52.832;4.758;2023-07-20T07:50:31;1.00;;;0.80;;
11614;SDS011;5863;52.832;4.758;2023-07-20T07:52:58;2.72;;;1.10;;
11614;SDS011;5863;52.832;4.758;2023-07-20T07:55:25;0.82;;;0.82;;
11614;SDS011;5863;52.832;4.758;2023-07-20T07:57:53;3.47;;;1.15;;
11614;SDS011;5863;52.832;4.758;2023-07-20T08:00:20;2.83;;;1.20;;
11614;SDS011;5863;52.832;4.758;2023-07-20T08:02:46;1.10;;;1.00;;
11614;SDS011;5863;52.832;4.758;2023-07-20T08:05:14;1.42;;;0.93;;
11614;SDS011;5863;52.832;4.758;2023-07-20T08:07:42;1.30;;;1.10;;
11614;SDS011;5863;52.832;4.758;2023-07-20T08:10:09;2.03;;;1.13;;
11614;SDS011;5863;52.832;4.758;2023-07-20T08:12:36;1.88;;;0.90;;
11614;SDS011;5863;52.832;4.758;2023-07-20T08:15:02;1.52;;;1.10;;
11614;SDS011;5863;52.832;4.758;2023-07-20T08:17:30;1.10;;;0.98;;
11614;SDS011;5863;52.832;4.758;2023-07-20T08:19:56;1.25;;;1.00;;
11614;SDS011;5863;52.832;4.758;2023-07-20T08:22:23;4.38;;;1.10;;
11614;SDS011;5863;52.832;4.758;2023-07-20T08:24:51;3.85;;;1.13;;
11614;SDS011;5863;52.832;4.758;2023-07-20T08:27:18;2.08;;;0.98;;
11614;SDS011;5863;52.832;4.758;2023-07-20T08:29:45;1.67;;;0.95;;
11614;SDS011;5863;52.832;4.758;2023-07-20T08:32:11;2.38;;;1.30;;
11614;SDS011;5863;52.832;4.758;2023-07-20T08:34:41;1.98;;;1.23;;
11614;SDS011;5863;52.832;4.758;2023-07-20T08:37:09;7.00;;;1.38;;
11614;SDS011;5863;52.832;4.758;2023-07-20T08:39:36;5.85;;;1.77;;
11614;SDS011;5863;52.832;4.758;2023-07-20T08:42:04;3.25;;;1.23;;
11614;SDS011;5863;52.832;4.758;2023-07-20T08:44:32;1.23;;;1.10;;
11614;SDS011;5863;52.832;4.758;2023-07-20T08:47:00;1.67;;;0.90;;
11614;SDS011;5863;52.832;4.758;2023-07-20T08:49:28;2.58;;;1.00;;
11614;SDS011;5863;52.832;4.758;2023-07-20T08:51:57;2.88;;;1.08;;
11614;SDS011;5863;52.832;4.758;2023-07-20T08:54:24;1.83;;;1.13;;
11614;SDS011;5863;52.832;4.758;2023-07-20T08:56:54;3.50;;;1.25;;
11614;SDS011;5863;52.832;4.758;2023-07-20T08:59:24;1.42;;;1.10;;
11614;SDS011;5863;52.832;4.758;2023-07-20T09:01:53;1.90;;;0.93;;
11614;SDS011;5863;52.832;4.758;2023-07-20T09:04:21;3.35;;;1.10;;
11614;SDS011;5863;52.832;4.758;2023-07-20T09:06:48;2.72;;;1.10;;
11614;SDS011;5863;52.832;4.758;2023-07-20T09:09:16;1.75;;;0.95;;
11614;SDS011;5863;52.832;4.758;2023-07-20T09:11:43;2.40;;;1.17;;
11614;SDS011;5863;52.832;4.758;2023-07-20T09:14:11;1.95;;;1.00;;
11614;SDS011;5863;52.832;4.758;2023-07-20T09:16:48;1.80;;;1.02;;
11614;SDS011;5863;52.832;4.758;2023-07-20T09:19:16;1.48;;;1.00;;
11614;SDS011;5863;52.832;4.758;2023-07-20T09:21:44;2.85;;;1.30;;
11614;SDS011;5863;52.832;4.758;2023-07-20T09:24:12;2.20;;;0.98;;
11614;SDS011;5863;52.832;4.758;2023-07-20T09:26:40;0.80;;;0.80;;
11614;SDS011;5863;52.832;4.758;2023-07-20T09:29:08;1.38;;;1.02;;
11614;SDS011;5863;52.832;4.758;2023-07-20T09:31:35;1.42;;;0.82;;
11614;SDS011;5863;52.832;4.758;2023-07-20T09:34:03;1.45;;;1.10;;
11614;SDS011;5863;52.832;4.758;2023-07-20T09:36:32;4.20;;;1.17;;
11614;SDS011;5863;52.832;4.758;2023-07-20T09:38:59;5.15;;;1.27;;
11614;SDS011;5863;52.832;4.758;2023-07-20T09:41:27;1.15;;;1.05;;
11614;SDS011;5863;52.832;4.758;2023-07-20T09:43:53;1.50;;;1.10;;
11614;SDS011;5863;52.832;4.758;2023-07-20T09:46:20;1.67;;;1.10;;
11614;SDS011;5863;52.832;4.758;2023-07-20T09:48:51;1.00;;;1.00;;
11614;SDS011;5863;52.832;4.758;2023-07-20T09:51:20;1.45;;;0.90;;
11614;SDS011;5863;52.832;4.758;2023-07-20T09:53:48;2.13;;;0.95;;
11614;SDS011;5863;52.832;4.758;2023-07-20T09:56:15;1.52;;;1.20;;
11614;SDS011;5863;52.832;4.758;2023-07-20T09:58:46;1.90;;;0.98;;
11614;SDS011;5863;52.832;4.758;2023-07-20T10:01:13;0.82;;;0.82;;
11614;SDS011;5863;52.832;4.758;2023-07-20T10:03:42;2.75;;;0.73;;
11614;SDS011;5863;52.832;4.758;2023-07-20T10:06:13;1.05;;;0.85;;
11614;SDS011;5863;52.832;4.758;2023-07-20T10:08:46;3.25;;;1.15;;
11614;SDS011;5863;52.832;4.758;2023-07-20T10:11:15;2.17;;;1.10;;
11614;SDS011;5863;52.832;4.758;2023-07-20T10:13:43;2.47;;;0.93;;
11614;SDS011;5863;52.832;4.758;2023-07-20T10:16:14;1.92;;;1.13;;
11614;SDS011;5863;52.832;4.758;2023-07-20T10:18:49;0.82;;;0.80;;
11614;SDS011;5863;52.832;4.758;2023-07-20T10:21:21;3.05;;;1.20;;
11614;SDS011;5863;52.832;4.758;2023-07-20T10:23:50;1.50;;;1.15;;
11614;SDS011;5863;52.832;4.758;2023-07-20T10:26:16;0.80;;;0.75;;
11614;SDS011;5863;52.832;4.758;2023-07-20T10:28:44;1.00;;;1.00;;
11614;SDS011;5863;52.832;4.758;2023-07-20T10:31:23;1.00;;;0.95;;
11614;SDS011;5863;52.832;4.758;2023-07-20T10:33:54;2.25;;;1.25;;
11614;SDS011;5863;52.832;4.758;2023-07-20T10:39:21;1.58;;;1.30;;
11614;SDS011;5863;52.832;4.758;2023-07-20T10:44:27;4.30;;;1.00;;
11614;SDS011;5863;52.832;4.758;2023-07-20T10:46:58;4.60;;;1.40;;
11614;SDS011;5863;52.832;4.758;2023-07-20T10:49:27;3.70;;;1.15;;
11614;SDS011;5863;52.832;4.758;2023-07-20T10:51:58;0.95;;;0.90;;
11614;SDS011;5863;52.832;4.758;2023-07-20T10:54:47;2.25;;;1.20;;
11614;SDS011;5863;52.832;4.758;2023-07-20T10:57:21;0.98;;;0.98;;
11614;SDS011;5863;52.832;4.758;2023-07-20T10:59:53;1.55;;;1.00;;
11614;SDS011;5863;52.832;4.758;2023-07-20T11:02:41;1.50;;;0.95;;
11614;SDS011;5863;52.832;4.758;2023-07-20T11:05:33;1.38;;;1.00;;
11614;SDS011;5863;52.832;4.758;2023-07-20T11:08:04;1.15;;;1.00;;
11614;SDS011;5863;52.832;4.758;2023-07-20T11:10:33;1.23;;;0.85;;
11614;SDS011;5863;52.832;4.758;2023-07-20T11:13:15;1.50;;;1.23;;
11614;SDS011;5863;52.832;4.758;2023-07-20T11:15:46;1.38;;;0.90;;
11614;SDS011;5863;52.832;4.758;2023-07-20T11:18:14;1.10;;;0.85;;
11614;SDS011;5863;52.832;4.758;2023-07-20T11:20:41;0.75;;;0.70;;
11614;SDS011;5863;52.832;4.758;2023-07-20T11:23:08;0.60;;;0.60;;
11614;SDS011;5863;52.832;4.758;2023-07-20T11:25:38;1.42;;;0.88;;
11614;SDS011;5863;52.832;4.758;2023-07-20T11:28:08;1.67;;;1.00;;
11614;SDS011;5863;52.832;4.758;2023-07-20T11:30:36;1.33;;;1.00;;
11614;SDS011;5863;52.832;4.758;2023-07-20T11:33:03;2.53;;;0.82;;
11614;SDS011;5863;52.832;4.758;2023-07-20T11:35:30;1.30;;;1.20;;
11614;SDS011;5863;52.832;4.758;2023-07-20T11:38:01;2.25;;;1.10;;
11614;SDS011;5863;52.832;4.758;2023-07-20T11:40:32;1.17;;;1.08;;
11614;SDS011;5863;52.832;4.758;2023-07-20T11:43:00;1.48;;;1.05;;
11614;SDS011;5863;52.832;4.758;2023-07-20T11:45:27;0.82;;;0.82;;
11614;SDS011;5863;52.832;4.758;2023-07-20T11:47:58;1.55;;;1.02;;
11614;SDS011;5863;52.832;4.758;2023-07-20T11:50:25;1.48;;;0.80;;
11614;SDS011;5863;52.832;4.758;2023-07-20T11:52:51;1.42;;;1.02;;
11614;SDS011;5863;52.832;4.758;2023-07-20T11:55:19;1.77;;;1.00;;
11614;SDS011;5863;52.832;4.758;2023-07-20T12:00:41;1.52;;;1.10;;
11614;SDS011;5863;52.832;4.758;2023-07-20T12:03:10;0.98;;;0.93;;
11614;SDS011;5863;52.832;4.758;2023-07-20T12:05:38;2.58;;;1.08;;
11614;SDS011;5863;52.832;4.758;2023-07-20T12:08:05;1.50;;;1.02;;
11614;SDS011;5863;52.832;4.758;2023-07-20T12:10:32;1.10;;;0.98;;
11614;SDS011;5863;52.832;4.758;2023-07-20T12:13:01;1.88;;;1.30;;
11614;SDS011;5863;52.832;4.758;2023-07-20T12:15:29;1.42;;;1.08;;
11614;SDS011;5863;52.832;4.758;2023-07-20T12:17:58;1.55;;;0.90;;
11614;SDS011;5863;52.832;4.758;2023-07-20T12:20:27;1.77;;;1.00;;
11614;SDS011;5863;52.832;4.758;2023-07-20T12:22:58;2.58;;;1.13;;
11614;SDS011;5863;52.832;4.758;2023-07-20T12:28:22;1.20;;;1.10;;
11614;SDS011;5863;52.832;4.758;2023-07-20T12:30:51;2.13;;;1.00;;
11614;SDS011;5863;52.832;4.758;2023-07-20T12:33:23;1.40;;;1.10;;
11614;SDS011;5863;52.832;4.758;2023-07-20T12:35:49;1.52;;;1.00;;
11614;SDS011;5863;52.832;4.758;2023-07-20T12:38:20;1.55;;;1.08;;
11614;SDS011;5863;52.832;4.758;2023-07-20T12:40:48;1.17;;;0.98;;
11614;SDS011;5863;52.832;4.758;2023-07-20T12:43:14;1.15;;;1.05;;
11614;SDS011;5863;52.832;4.758;2023-07-20T12:45:41;1.17;;;1.02;;
11614;SDS011;5863;52.832;4.758;2023-07-20T12:48:08;2.42;;;1.10;;
11614;SDS011;5863;52.832;4.758;2023-07-20T12:50:37;1.05;;;0.82;;
11614;SDS011;5863;52.832;4.758;2023-07-20T12:53:03;3.72;;;1.20;;
11614;SDS011;5863;52.832;4.758;2023-07-20T12:55:30;9.45;;;1.55;;
11614;SDS011;5863;52.832;4.758;2023-07-20T12:57:57;1.55;;;1.10;;
11614;SDS011;5863;52.832;4.758;2023-07-20T13:00:24;1.15;;;1.00;;
11614;SDS011;5863;52.832;4.758;2023-07-20T13:02:51;1.65;;;1.30;;
11614;SDS011;5863;52.832;4.758;2023-07-20T13:05:18;1.80;;;1.23;;
11614;SDS011;5863;52.832;4.758;2023-07-20T13:07:46;1.55;;;1.27;;
11614;SDS011;5863;52.832;4.758;2023-07-20T13:10:12;1.00;;;1.00;;
11614;SDS011;5863;52.832;4.758;2023-07-20T13:12:39;1.23;;;1.00;;
11614;SDS011;5863;52.832;4.758;2023-07-20T13:15:07;1.40;;;1.00;;
11614;SDS011;5863;52.832;4.758;2023-07-20T13:17:36;1.10;;;1.08;;
11614;SDS011;5863;52.832;4.758;2023-07-20T13:20:04;1.98;;;1.20;;
11614;SDS011;5863;52.832;4.758;2023-07-20T13:22:32;1.08;;;1.02;;
11614;SDS011;5863;52.832;4.758;2023-07-20T13:25:01;1.08;;;1.02;;
11614;SDS011;5863;52.832;4.758;2023-07-20T13:27:28;1.27;;;1.00;;
11614;SDS011;5863;52.832;4.758;2023-07-20T13:29:56;1.13;;;1.10;;
11614;SDS011;5863;52.832;4.758;2023-07-20T13:32:23;2.22;;;1.10;;
11614;SDS011;5863;52.832;4.758;2023-07-20T13:34:50;1.05;;;1.05;;
11614;SDS011;5863;52.832;4.758;2023-07-20T13:37:17;2.25;;;1.20;;
11614;SDS011;5863;52.832;4.758;2023-07-20T13:39:43;1.20;;;1.10;;
11614;SDS011;5863;52.832;4.758;2023-07-20T13:42:11;1.95;;;1.02;;
11614;SDS011;5863;52.832;4.758;2023-07-20T13:44:38;0.73;;;0.73;;
11614;SDS011;5863;52.832;4.758;2023-07-20T13:47:05;1.98;;;1.80;;
11614;SDS011;5863;52.832;4.758;2023-07-20T13:49:32;3.00;;;1.58;;
11614;SDS011;5863;52.832;4.758;2023-07-20T13:51:59;1.55;;;1.45;;
11614;SDS011;5863;52.832;4.758;2023-07-20T13:54:25;1.80;;;1.10;;
11614;SDS011;5863;52.832;4.758;2023-07-20T13:56:52;1.73;;;1.30;;
11614;SDS011;5863;52.832;4.758;2023-07-20T13:59:20;0.90;;;0.90;;
11614;SDS011;5863;52.832;4.758;2023-07-20T14:01:47;1.83;;;1.15;;
11614;SDS011;5863;52.832;4.758;2023-07-20T14:04:14;1.42;;;1.00;;
11614;SDS011;5863;52.832;4.758;2023-07-20T14:06:41;2.70;;;1.40;;
11614;SDS011;5863;52.832;4.758;2023-07-20T14:09:08;1.23;;;1.13;;
11614;SDS011;5863;52.832;4.758;2023-07-20T14:11:35;1.48;;;1.02;;
11614;SDS011;5863;52.832;4.758;2023-07-20T14:14:02;1.17;;;1.08;;
11614;SDS011;5863;52.832;4.758;2023-07-20T14:16:30;1.40;;;1.05;;
11614;SDS011;5863;52.832;4.758;2023-07-20T14:18:57;0.80;;;0.80;;
11614;SDS011;5863;52.832;4.758;2023-07-20T14:21:24;1.13;;;0.82;;
11614;SDS011;5863;52.832;4.758;2023-07-20T14:23:51;0.95;;;0.95;;
11614;SDS011;5863;52.832;4.758;2023-07-20T14:26:18;1.80;;;1.10;;
11614;SDS011;5863;52.832;4.758;2023-07-20T14:28:45;2.88;;;1.10;;
11614;SDS011;5863;52.832;4.758;2023-07-20T14:31:12;1.17;;;1.08;;
11614;SDS011;5863;52.832;4.758;2023-07-20T14:33:40;1.08;;;0.98;;
11614;SDS011;5863;52.832;4.758;2023-07-20T14:36:07;0.80;;;0.80;;
11614;SDS011;5863;52.832;4.758;2023-07-20T14:38:34;1.00;;;1.00;;
11614;SDS011;5863;52.832;4.758;2023-07-20T14:41:01;1.17;;;1.05;;
11614;SDS011;5863;52.832;4.758;2023-07-20T14:43:27;1.38;;;1.15;;
11614;SDS011;5863;52.832;4.758;2023-07-20T14:45:54;1.20;;;1.10;;
11614;SDS011;5863;52.832;4.758;2023-07-20T14:48:21;1.52;;;1.23;;
11614;SDS011;5863;52.832;4.758;2023-07-20T14:50:49;2.40;;;0.98;;
11614;SDS011;5863;52.832;4.758;2023-07-20T14:53:16;1.50;;;1.20;;
11614;SDS011;5863;52.832;4.758;2023-07-20T14:55:42;3.05;;;1.30;;
11614;SDS011;5863;52.832;4.758;2023-07-20T14:58:09;1.52;;;1.30;;
11614;SDS011;5863;52.832;4.758;2023-07-20T15:00:37;1.52;;;1.10;;
11614;SDS011;5863;52.832;4.758;2023-07-20T15:03:03;2.10;;;1.30;;
11614;SDS011;5863;52.832;4.758;2023-07-20T15:05:30;1.27;;;1.10;;
11614;SDS011;5863;52.832;4.758;2023-07-20T15:07:59;1.13;;;1.02;;
11614;SDS011;5863;52.832;4.758;2023-07-20T15:10:26;3.38;;;1.10;;
11614;SDS011;5863;52.832;4.758;2023-07-20T15:12:52;1.23;;;1.13;;
11614;SDS011;5863;52.832;4.758;2023-07-20T15:15:19;1.48;;;1.38;;
11614;SDS011;5863;52.832;4.758;2023-07-20T15:17:46;1.35;;;1.20;;